createdAt,value
2023-01-06T00:01:20.256Z,7.00
2023-01-06T00:03:52.406Z,6.80
2023-01-06T00:06:27.732Z,6.70
2023-01-06T00:09:02.813Z,6.60
2023-01-06T00:11:31.110Z,6.70
2023-01-06T00:14:00.236Z,6.80
2023-01-06T00:16:27.594Z,6.90
2023-01-06T00:18:57.049Z,6.90
2023-01-06T00:21:25.112Z,6.80
2023-01-06T00:23:53.673Z,6.90
2023-01-06T00:26:21.712Z,7.00
2023-01-06T00:28:53.535Z,6.90
2023-01-06T00:31:22.672Z,6.60
2023-01-06T00:33:50.371Z,6.70
2023-01-06T00:36:18.626Z,6.90
2023-01-06T00:38:46.176Z,7.10
2023-01-06T00:41:33.244Z,7.30
2023-01-06T00:44:02.205Z,7.50
2023-01-06T00:46:31.960Z,7.60
2023-01-06T00:49:05.316Z,7.60
2023-01-06T00:51:38.907Z,7.60
2023-01-06T00:54:08.790Z,7.20
2023-01-06T00:56:41.043Z,7.10
2023-01-06T00:59:09.304Z,7.00
2023-01-06T01:01:38.935Z,7.10
2023-01-06T01:04:06.997Z,7.00
2023-01-06T01:06:35.033Z,7.00
2023-01-06T01:09:03.328Z,7.20
2023-01-06T01:11:50.763Z,7.30
2023-01-06T01:14:20.913Z,7.40
2023-01-06T01:16:49.743Z,7.40
2023-01-06T01:19:17.891Z,7.30
2023-01-06T01:21:47.057Z,7.20
2023-01-06T01:24:15.183Z,7.10
2023-01-06T01:26:43.809Z,7.00
2023-01-06T01:29:12.941Z,6.70
2023-01-06T01:31:41.694Z,6.80
2023-01-06T01:34:10.818Z,6.50
2023-01-06T01:36:40.042Z,6.50
2023-01-06T01:39:08.130Z,6.70
2023-01-06T01:41:35.562Z,6.80
2023-01-06T01:44:25.272Z,6.90
2023-01-06T01:46:53.965Z,7.00
2023-01-06T01:49:30.382Z,7.00
2023-01-06T01:51:59.447Z,6.80
2023-01-06T01:54:31.020Z,6.40
2023-01-06T01:57:08.798Z,6.40
2023-01-06T01:59:40.229Z,6.50
2023-01-06T02:02:08.162Z,6.00
2023-01-06T02:04:40.224Z,5.70
2023-01-06T02:07:09.467Z,5.80
2023-01-06T02:09:51.042Z,6.00
2023-01-06T02:12:18.969Z,6.20
2023-01-06T02:14:47.563Z,6.40
2023-01-06T02:17:19.571Z,6.50
2023-01-06T02:19:46.859Z,6.60
2023-01-06T02:22:35.586Z,6.10
2023-01-06T02:25:27.479Z,5.70
2023-01-06T02:28:13.463Z,5.80
2023-01-06T02:30:56.084Z,5.80
2023-01-06T02:33:39.318Z,5.90
2023-01-06T02:36:16.571Z,6.10
2023-01-06T02:39:01.235Z,5.70
2023-01-06T02:41:32.055Z,5.70
2023-01-06T02:44:25.087Z,5.90
2023-01-06T02:47:24.966Z,6.10
2023-01-06T02:50:15.937Z,6.30
2023-01-06T02:53:01.014Z,6.40
2023-01-06T02:55:48.131Z,6.30
2023-01-06T02:58:26.372Z,6.40
2023-01-06T03:01:19.281Z,6.50
2023-01-06T03:03:48.626Z,6.60
2023-01-06T03:06:21.264Z,6.70
2023-01-06T03:08:52.163Z,6.80
2023-01-06T03:11:21.346Z,6.60
2023-01-06T03:14:13.571Z,6.70
2023-01-06T03:16:41.501Z,6.70
2023-01-06T03:19:09.517Z,6.60
2023-01-06T03:21:42.749Z,6.50
2023-01-06T03:24:12.433Z,6.40
2023-01-06T03:26:43.914Z,6.50
2023-01-06T03:29:14.003Z,6.50
2023-01-06T03:32:13.121Z,6.60
2023-01-06T03:35:04.541Z,6.40
2023-01-06T03:37:42.809Z,6.10
2023-01-06T03:40:38.860Z,5.70
2023-01-06T03:43:31.864Z,5.50
2023-01-06T03:46:17.677Z,5.80
2023-01-06T03:48:54.707Z,6.00
2023-01-06T03:51:38.470Z,6.20
2023-01-06T03:54:37.786Z,6.30
2023-01-06T03:57:16.794Z,6.40
2023-01-06T03:59:53.552Z,6.20
2023-01-06T04:02:23.426Z,5.90
2023-01-06T04:05:09.594Z,6.00
2023-01-06T04:07:40.275Z,6.10
2023-01-06T04:10:10.859Z,6.30
2023-01-06T04:12:57.697Z,6.30
2023-01-06T04:15:29.833Z,6.30
2023-01-06T04:17:59.223Z,6.40
2023-01-06T04:20:31.192Z,6.50
2023-01-06T04:23:05.165Z,6.60
2023-01-06T04:25:38.391Z,6.60
2023-01-06T04:28:18.502Z,6.50
2023-01-06T04:30:47.755Z,6.60
2023-01-06T04:33:16.207Z,6.70
2023-01-06T04:35:46.071Z,6.70
2023-01-06T04:38:15.267Z,6.70
2023-01-06T04:40:43.855Z,6.60
2023-01-06T04:43:16.435Z,6.50
2023-01-06T04:45:47.455Z,6.50
2023-01-06T04:48:16.994Z,6.30
2023-01-06T04:50:44.282Z,6.40
2023-01-06T04:53:12.970Z,6.60
2023-01-06T04:55:41.315Z,6.70
2023-01-06T04:58:10.354Z,6.80
2023-01-06T05:00:43.294Z,6.90
2023-01-06T05:03:11.728Z,6.70
2023-01-06T05:05:38.958Z,6.60
2023-01-06T05:08:07.367Z,6.60
2023-01-06T05:10:34.615Z,6.40
2023-01-06T05:13:02.919Z,6.50
2023-01-06T05:15:31.393Z,6.60
2023-01-06T05:17:59.793Z,6.70
2023-01-06T05:20:27.397Z,6.70
2023-01-06T05:22:55.731Z,6.80
2023-01-06T05:25:23.115Z,6.80
2023-01-06T05:27:51.623Z,6.60
2023-01-06T05:30:23.162Z,6.50
2023-01-06T05:32:51.176Z,6.60
2023-01-06T05:35:20.764Z,6.20
2023-01-06T05:37:49.180Z,6.30
2023-01-06T05:40:16.797Z,6.50
2023-01-06T05:42:45.153Z,6.60
2023-01-06T05:45:13.020Z,6.60
2023-01-06T05:47:41.238Z,6.10
2023-01-06T05:50:08.972Z,6.10
2023-01-06T05:52:37.099Z,6.30
2023-01-06T05:55:06.752Z,6.40
2023-01-06T05:57:34.695Z,6.20
2023-01-06T06:00:02.928Z,6.10
2023-01-06T06:02:40.603Z,6.30
2023-01-06T06:05:08.711Z,6.50
2023-01-06T06:07:36.659Z,6.60
2023-01-06T06:10:07.187Z,6.70
2023-01-06T06:12:34.620Z,6.40
2023-01-06T06:15:04.146Z,6.00
2023-01-06T06:17:32.405Z,6.10
2023-01-06T06:19:59.832Z,6.20
2023-01-06T06:22:27.105Z,6.40
2023-01-06T06:24:55.335Z,6.60
2023-01-06T06:27:35.639Z,6.70
2023-01-06T06:30:03.069Z,6.70
2023-01-06T06:32:32.325Z,6.40
2023-01-06T06:34:59.720Z,6.30
2023-01-06T06:37:27.053Z,6.20
2023-01-06T06:39:54.427Z,6.10
2023-01-06T06:42:21.711Z,6.20
2023-01-06T06:44:52.005Z,6.40
2023-01-06T06:47:20.046Z,6.50
2023-01-06T06:49:47.296Z,6.60
2023-01-06T06:52:14.590Z,6.10
2023-01-06T06:54:41.947Z,6.10
2023-01-06T06:57:09.350Z,6.40
2023-01-06T06:59:37.619Z,6.60
2023-01-06T07:02:06.358Z,6.60
2023-01-06T07:04:34.636Z,6.60
2023-01-06T07:07:02.323Z,6.50
2023-01-06T07:09:30.401Z,6.40
2023-01-06T07:11:57.704Z,6.40
2023-01-06T07:14:25.918Z,6.50
2023-01-06T07:16:54.209Z,6.70
2023-01-06T07:19:22.224Z,6.60
2023-01-06T07:21:50.067Z,6.70
2023-01-06T07:24:17.539Z,6.80
2023-01-06T07:26:46.013Z,7.00
2023-01-06T07:29:14.145Z,7.20
2023-01-06T07:31:41.744Z,7.40
2023-01-06T07:34:09.150Z,7.50
2023-01-06T07:36:36.559Z,7.50
2023-01-06T07:39:04.367Z,7.50
2023-01-06T07:41:33.313Z,7.60
2023-01-06T07:44:01.233Z,7.60
2023-01-06T07:46:28.664Z,7.70
2023-01-06T07:48:56.699Z,7.80
2023-01-06T07:51:24.030Z,8.00
2023-01-06T07:53:51.949Z,8.10
2023-01-06T07:56:19.469Z,8.30
2023-01-06T07:58:47.762Z,8.50
2023-01-06T08:08:56.948Z,8.90
2023-01-06T08:11:24.540Z,8.50
2023-01-06T08:13:51.962Z,8.50
2023-01-06T08:16:19.303Z,8.60
2023-01-06T08:18:48.485Z,8.80
2023-01-06T08:23:03.153Z,9.20
2023-01-06T08:25:31.377Z,9.10
2023-01-06T08:37:41.949Z,10.00
2023-01-06T08:40:10.085Z,10.00
2023-01-06T08:42:37.722Z,10.10
2023-01-06T08:45:08.149Z,10.00
2023-01-06T08:47:36.812Z,9.80
2023-01-06T08:50:07.783Z,9.60
2023-01-06T08:52:35.385Z,9.60
2023-01-06T08:55:06.880Z,10.00
2023-01-06T08:57:37.892Z,10.00
2023-01-06T09:00:09.462Z,10.40
2023-01-06T09:02:37.365Z,10.80
2023-01-06T09:05:07.924Z,11.10
2023-01-06T09:07:35.404Z,11.30
2023-01-06T09:10:06.263Z,11.70
2023-01-06T09:12:35.043Z,11.90
2023-01-06T09:15:04.559Z,12.50
2023-01-06T09:17:32.655Z,13.10
2023-01-06T09:19:59.941Z,13.90
2023-01-06T09:22:27.739Z,15.00
2023-01-06T09:24:56.148Z,16.70
2023-01-06T09:27:24.255Z,18.30
2023-01-06T09:29:52.044Z,19.50
2023-01-06T09:32:19.791Z,21.00
2023-01-06T09:34:47.089Z,21.70
2023-01-06T09:37:17.802Z,22.70
2023-01-06T09:39:46.022Z,23.50
2023-01-06T09:42:18.901Z,24.00
2023-01-06T09:44:59.565Z,24.60
2023-01-06T09:47:34.326Z,24.70
2023-01-06T09:50:09.164Z,23.50
2023-01-06T09:52:59.312Z,22.70
2023-01-06T09:55:31.914Z,23.50
2023-01-06T09:58:05.143Z,23.70
2023-01-06T10:00:45.228Z,22.80
2023-01-06T10:03:33.619Z,22.40
2023-01-06T10:06:10.310Z,22.00
2023-01-06T10:09:17.568Z,21.90
2023-01-06T10:12:27.203Z,22.50
2023-01-06T10:15:14.812Z,23.60
2023-01-06T10:18:07.229Z,24.20
2023-01-06T10:20:54.651Z,24.20
2023-01-06T10:23:43.027Z,25.20
2023-01-06T10:26:14.467Z,26.20
2023-01-06T10:28:44.796Z,26.70
2023-01-06T10:31:15.596Z,26.90
2023-01-06T10:33:51.462Z,26.70
2023-01-06T10:36:29.199Z,26.90
2023-01-06T10:39:01.306Z,27.00
2023-01-06T10:41:38.125Z,26.80
2023-01-06T10:44:06.706Z,27.20
2023-01-06T10:46:36.262Z,27.30
2023-01-06T10:49:06.446Z,27.30
2023-01-06T10:51:44.672Z,26.90
2023-01-06T10:54:23.591Z,27.10
2023-01-06T10:57:03.147Z,27.00
2023-01-06T10:59:31.788Z,26.20
2023-01-06T11:01:59.391Z,26.20
2023-01-06T11:04:28.474Z,26.60
2023-01-06T11:06:59.735Z,27.10
2023-01-06T11:09:47.476Z,26.80
2023-01-06T11:12:23.368Z,27.20
2023-01-06T11:15:25.878Z,27.20
2023-01-06T11:17:54.476Z,26.90
2023-01-06T11:20:21.815Z,27.00
2023-01-06T11:22:49.340Z,26.90
2023-01-06T11:25:20.619Z,26.40
2023-01-06T11:27:50.373Z,25.60
2023-01-06T11:30:31.587Z,24.80
2023-01-06T11:32:59.994Z,24.00
2023-01-06T11:35:33.427Z,23.30
2023-01-06T11:38:01.978Z,22.90
2023-01-06T11:40:34.608Z,22.30
2023-01-06T11:43:04.017Z,21.70
2023-01-06T11:45:41.690Z,21.30
2023-01-06T11:48:17.696Z,20.60
2023-01-06T11:51:06.833Z,20.30
2023-01-06T11:53:34.568Z,20.50
2023-01-06T11:56:04.148Z,20.30
2023-01-06T11:59:04.251Z,19.70
2023-01-06T12:01:55.762Z,19.30
2023-01-06T12:05:01.462Z,19.20
2023-01-06T12:07:50.595Z,19.00
2023-01-06T12:10:28.106Z,19.00
2023-01-06T12:13:12.676Z,19.10
2023-01-06T12:15:45.166Z,18.50
2023-01-06T12:18:24.304Z,18.30
2023-01-06T12:20:52.981Z,18.40
2023-01-06T12:23:25.776Z,18.70
2023-01-06T12:26:09.373Z,19.20
2023-01-06T12:28:41.245Z,19.10
2023-01-06T12:31:27.963Z,18.80
2023-01-06T12:33:56.887Z,18.70
2023-01-06T12:36:56.907Z,19.00
2023-01-06T12:39:34.153Z,19.00
2023-01-06T12:42:10.867Z,19.10
2023-01-06T12:44:51.401Z,19.10
2023-01-06T12:47:45.843Z,19.10
2023-01-06T12:50:31.917Z,19.20
2023-01-06T12:53:20.541Z,18.90
2023-01-06T12:56:22.578Z,18.70
2023-01-06T12:59:29.780Z,17.80
2023-01-06T13:02:19.735Z,18.00
2023-01-06T13:04:56.303Z,18.10
2023-01-06T13:07:34.053Z,17.80
2023-01-06T13:10:20.119Z,17.80
2023-01-06T13:12:57.919Z,17.60
2023-01-06T13:15:32.418Z,17.00
2023-01-06T13:18:15.899Z,16.80
2023-01-06T13:21:05.307Z,16.70
2023-01-06T13:23:45.681Z,16.70
2023-01-06T13:26:31.678Z,16.70
2023-01-06T13:29:16.471Z,16.60
2023-01-06T13:32:11.773Z,16.50
2023-01-06T13:35:16.176Z,16.60
2023-01-06T13:38:24.809Z,16.90
2023-01-06T13:40:56.710Z,16.90
2023-01-06T13:43:31.104Z,17.00
2023-01-06T13:46:06.456Z,17.50
2023-01-06T13:48:40.020Z,18.10
2023-01-06T13:51:14.283Z,18.80
2023-01-06T13:53:44.732Z,18.30
2023-01-06T13:56:15.015Z,17.20
2023-01-06T13:58:46.165Z,16.90
2023-01-06T14:01:20.317Z,16.10
2023-01-06T14:03:51.388Z,15.60
2023-01-06T14:06:22.804Z,15.20
2023-01-06T14:09:10.723Z,15.30
2023-01-06T14:11:39.601Z,14.90
2023-01-06T14:14:39.684Z,14.50
2023-01-06T14:17:27.200Z,14.20
2023-01-06T14:19:56.734Z,14.40
2023-01-06T14:38:21.538Z,16.20
2023-01-06T14:41:55.400Z,15.90
2023-01-06T14:44:32.691Z,14.90
2023-01-06T14:47:19.354Z,14.40
2023-01-06T14:50:08.300Z,13.90
2023-01-06T14:52:39.598Z,13.30
2023-01-06T14:55:20.501Z,13.10
2023-01-06T14:57:50.507Z,13.30
2023-01-06T15:00:31.959Z,13.50
2023-01-06T15:03:05.470Z,13.90
2023-01-06T15:05:38.602Z,14.00
2023-01-06T15:08:15.470Z,13.50
2023-01-06T15:10:48.788Z,13.40
2023-01-06T15:13:31.310Z,13.00
2023-01-06T15:16:28.959Z,12.90
2023-01-06T15:18:56.710Z,12.90
2023-01-06T15:21:25.145Z,13.00
2023-01-06T15:23:56.016Z,13.10
2023-01-06T15:26:29.792Z,13.20
2023-01-06T15:29:06.334Z,13.30
2023-01-06T15:31:54.641Z,13.30
2023-01-06T15:34:26.610Z,12.60
2023-01-06T15:36:56.393Z,12.00
2023-01-06T15:39:28.719Z,12.10
2023-01-06T15:41:57.361Z,11.70
2023-01-06T15:44:32.915Z,11.20
2023-01-06T15:47:39.909Z,11.40
2023-01-06T15:50:21.674Z,11.70
2023-01-06T15:53:00.309Z,12.00
2023-01-06T15:55:33.164Z,12.20
2023-01-06T15:58:24.167Z,12.30
2023-01-06T16:01:00.128Z,11.70
2023-01-06T16:03:30.905Z,11.10
2023-01-06T16:06:26.000Z,10.90
2023-01-06T16:08:54.219Z,10.90
2023-01-06T16:11:48.637Z,10.90
2023-01-06T16:14:31.557Z,10.90
2023-01-06T16:17:14.988Z,11.10
2023-01-06T16:20:00.650Z,11.30
2023-01-06T16:22:36.089Z,11.50
2023-01-06T16:25:08.692Z,10.90
2023-01-06T16:27:36.688Z,10.60
2023-01-06T16:30:25.642Z,10.70
2023-01-06T16:32:55.584Z,10.40
2023-01-06T16:35:26.723Z,10.50
2023-01-06T16:37:55.948Z,10.70
2023-01-06T16:40:26.476Z,10.70
2023-01-06T16:43:02.254Z,10.80
2023-01-06T16:45:35.517Z,10.60
2023-01-06T16:48:08.290Z,10.20
2023-01-06T16:50:38.535Z,10.10
2023-01-06T16:53:10.684Z,9.80
2023-01-06T16:55:39.583Z,9.70
2023-01-06T16:58:17.801Z,9.70
2023-01-06T17:00:52.008Z,9.60
2023-01-06T17:03:26.076Z,9.60
2023-01-06T17:05:54.223Z,9.70
2023-01-06T17:08:29.839Z,9.90
2023-01-06T17:11:02.591Z,10.10
2023-01-06T17:13:39.847Z,10.20
2023-01-06T17:16:10.970Z,10.40
2023-01-06T17:18:47.865Z,10.10
2023-01-06T17:21:18.061Z,10.00
2023-01-06T17:23:56.395Z,9.60
2023-01-06T17:26:24.720Z,9.20
2023-01-06T17:28:55.234Z,9.40
2023-01-06T17:31:37.147Z,9.70
2023-01-06T17:34:31.853Z,10.00
2023-01-06T17:37:22.372Z,10.10
2023-01-06T17:39:50.821Z,10.30
2023-01-06T17:42:18.343Z,10.40
2023-01-06T17:44:59.952Z,10.20
2023-01-06T17:47:55.793Z,9.40
2023-01-06T17:50:32.065Z,9.00
2023-01-06T17:53:33.107Z,8.90
2023-01-06T17:56:06.116Z,8.80
2023-01-06T17:58:36.984Z,8.60
2023-01-06T18:01:16.892Z,8.50
2023-01-06T18:03:44.798Z,8.30
2023-01-06T18:06:15.503Z,8.30
2023-01-06T18:08:45.510Z,8.30
2023-01-06T18:11:12.796Z,8.30
2023-01-06T18:13:42.141Z,8.20
2023-01-06T18:16:31.275Z,8.40
2023-01-06T18:19:24.566Z,8.60
2023-01-06T18:21:53.715Z,9.00
2023-01-06T18:24:33.284Z,9.30
2023-01-06T18:27:23.807Z,9.40
2023-01-06T18:29:51.704Z,9.20
2023-01-06T18:32:21.910Z,9.40
2023-01-06T18:35:17.350Z,9.40
2023-01-06T18:37:45.163Z,9.10
2023-01-06T18:40:19.793Z,9.10
2023-01-06T18:42:50.922Z,9.20
2023-01-06T18:45:29.567Z,9.10
2023-01-06T18:48:02.299Z,9.10
2023-01-06T18:50:33.731Z,9.20
2023-01-06T18:53:16.113Z,9.30
2023-01-06T18:55:46.279Z,9.20
2023-01-06T18:58:36.458Z,9.20
2023-01-06T19:01:21.580Z,9.20
2023-01-06T19:04:42.567Z,9.40
2023-01-06T19:07:12.926Z,9.30
2023-01-06T19:09:46.485Z,9.10
2023-01-06T19:12:34.432Z,9.00
2023-01-06T19:15:12.866Z,8.70
2023-01-06T19:17:58.260Z,8.60
2023-01-06T19:20:29.385Z,8.80
2023-01-06T19:22:57.461Z,9.00
2023-01-06T19:25:37.664Z,9.00
2023-01-06T19:28:19.109Z,8.90
2023-01-06T19:31:03.618Z,8.80
2023-01-06T19:33:40.552Z,8.70
2023-01-06T19:36:14.362Z,8.60
2023-01-06T19:38:43.205Z,8.60
2023-01-06T19:41:27.205Z,8.10
2023-01-06T19:44:06.935Z,7.90
2023-01-06T19:46:43.119Z,7.60
2023-01-06T19:49:26.128Z,7.80
2023-01-06T19:51:57.142Z,8.00
2023-01-06T19:54:34.301Z,8.20
2023-01-06T19:57:03.160Z,8.40
2023-01-06T19:59:47.573Z,8.60
2023-01-06T20:02:31.181Z,8.80
2023-01-06T20:04:58.781Z,8.70
2023-01-06T20:07:26.606Z,8.20
2023-01-06T20:09:56.359Z,8.10
2023-01-06T20:12:24.444Z,8.20
2023-01-06T20:14:52.212Z,8.30
2023-01-06T20:17:20.860Z,8.50
2023-01-06T20:19:48.407Z,8.70
2023-01-06T20:22:16.519Z,8.60
2023-01-06T20:24:43.839Z,8.00
2023-01-06T20:27:12.546Z,7.50
2023-01-06T20:29:39.945Z,7.60
2023-01-06T20:32:07.347Z,7.80
2023-01-06T20:34:34.669Z,7.90
2023-01-06T20:37:02.044Z,7.90
2023-01-06T20:39:30.634Z,7.80
2023-01-06T20:41:58.336Z,8.00
2023-01-06T20:44:26.589Z,8.20
2023-01-06T20:46:53.824Z,8.30
2023-01-06T20:49:21.100Z,8.30
2023-01-06T20:51:48.571Z,8.10
2023-01-06T20:54:15.900Z,7.80
2023-01-06T20:56:43.900Z,7.70
2023-01-06T20:59:12.563Z,7.60
2023-01-06T21:01:40.697Z,7.80
2023-01-06T21:04:08.486Z,7.80
2023-01-06T21:06:37.202Z,8.00
2023-01-06T21:09:04.631Z,8.10
2023-01-06T21:11:33.187Z,8.10
2023-01-06T21:14:00.592Z,7.70
2023-01-06T21:16:29.257Z,7.30
2023-01-06T21:18:57.720Z,7.00
2023-01-06T21:21:25.599Z,7.10
2023-01-06T21:23:53.310Z,7.30
2023-01-06T21:26:21.329Z,7.50
2023-01-06T21:28:48.605Z,7.80
2023-01-06T21:31:17.320Z,8.00
2023-01-06T21:33:44.723Z,7.80
2023-01-06T21:36:12.500Z,7.60
2023-01-06T21:38:39.699Z,7.80
2023-01-06T21:41:25.651Z,8.00
2023-01-06T21:43:53.320Z,8.00
2023-01-06T21:46:21.826Z,8.10
2023-01-06T21:48:49.639Z,7.90
2023-01-06T21:51:17.327Z,7.80
2023-01-06T21:53:45.027Z,7.70
2023-01-06T21:56:13.910Z,7.20
2023-01-06T21:58:41.592Z,7.20
2023-01-06T22:01:08.959Z,7.40
2023-01-06T22:03:36.888Z,7.50
2023-01-06T22:06:04.758Z,7.40
2023-01-06T22:08:33.184Z,6.90
2023-01-06T22:11:00.749Z,6.80
2023-01-06T22:13:29.414Z,7.00
2023-01-06T22:15:58.807Z,7.20
2023-01-06T22:18:26.951Z,7.30
2023-01-06T22:20:58.323Z,7.20
2023-01-06T22:23:26.871Z,7.20
2023-01-06T22:25:54.230Z,7.00
2023-01-06T22:28:23.286Z,7.00
2023-01-06T22:30:53.021Z,6.90
2023-01-06T22:33:20.456Z,7.00
2023-01-06T22:35:47.869Z,7.20
2023-01-06T22:38:15.738Z,7.00
2023-01-06T22:40:43.033Z,6.90
2023-01-06T22:43:11.819Z,6.90
2023-01-06T22:45:45.737Z,7.00
2023-01-06T22:48:13.965Z,7.30
2023-01-06T22:50:43.399Z,7.40
2023-01-06T22:53:13.775Z,7.40
2023-01-06T22:55:41.212Z,7.20
2023-01-06T22:58:08.935Z,7.40
2023-01-06T23:00:39.049Z,7.40
2023-01-06T23:03:07.676Z,7.50
2023-01-06T23:05:35.015Z,7.60
2023-01-06T23:08:04.076Z,7.50
2023-01-06T23:10:32.076Z,7.40
2023-01-06T23:12:59.340Z,7.30
2023-01-06T23:15:28.280Z,7.40
2023-01-06T23:17:55.959Z,7.40
2023-01-06T23:20:23.289Z,7.50
2023-01-06T23:22:52.412Z,7.40
2023-01-06T23:25:19.724Z,7.50
2023-01-06T23:27:47.453Z,7.50
2023-01-06T23:30:14.971Z,7.20
2023-01-06T23:32:43.334Z,7.20
2023-01-06T23:35:11.462Z,7.40
2023-01-06T23:37:39.901Z,7.50
2023-01-06T23:40:07.856Z,7.50
2023-01-06T23:42:40.936Z,7.60
2023-01-06T23:45:16.524Z,7.70
2023-01-06T23:47:44.948Z,7.80
2023-01-06T23:50:13.501Z,7.70
2023-01-06T23:52:40.863Z,7.80
2023-01-06T23:55:08.556Z,7.50
2023-01-06T23:57:36.117Z,7.20
